This is the latest recevied weather packets stored in our database for station/object JE4YKI-13. If no packets are shown the sender has not sent any weather packets the latest 1 day(s).
| Time | Temp. | Humidity | Pressure | Rain* | Wind** | Luminosity | Snow |
|---|---|---|---|---|---|---|---|
| 1777991419 | 14.44° C | 72% | 1019.5 hPa | 0 mm | 0 m/s | - | - |
| 1777990819 | 15° C | 71% | 1019.5 hPa | 0 mm | 0 m/s | - | - |
| 1777990219 | 15° C | 71% | 1019.5 hPa | 0 mm | 0 m/s | - | - |
| 1777989618 | 14.44° C | 70% | 1019.6 hPa | 0 mm | 0 m/s | - | - |
| 1777989017 | 14.44° C | 69% | 1019.6 hPa | 0 mm | 0 m/s | - | - |
| 1777988418 | 15° C | 66% | 1019.6 hPa | 0 mm | 0 m/s | - | - |
| 1777987817 | 15° C | 68% | 1019.6 hPa | 0 mm | 0 m/s | - | - |
| 1777987216 | 15° C | 67% | 1019.5 hPa | 0 mm | 0 m/s | - | - |
| 1777986616 | 15° C | 66% | 1019.4 hPa | 0 mm | 0 m/s | - | - |
| 1777986016 | 15° C | 66% | 1019.4 hPa | 0 mm | 0 m/s | - | - |
| 1777985415 | 15° C | 64% | 1019.3 hPa | 0 mm | 0 m/s | - | - |
| 1777984215 | 14.44° C | 63% | 1019.2 hPa | 0 mm | 0 m/s | - | - |
| 1777983614 | 15° C | 62% | 1019.1 hPa | 0 mm | 0 m/s | - | - |
| 1777983015 | 15° C | 62% | 1019.1 hPa | 0 mm | 0 m/s | - | - |
| 1777982413 | 15.56° C | 60% | 1019.1 hPa | 0 mm | 0 m/s | - | - |
| 1777981813 | 15.56° C | 59% | 1018.9 hPa | 0 mm | 0 m/s | - | - |
| 1777980612 | 14.44° C | 62% | 1018.7 hPa | 0 mm | 0 m/s | - | - |
| 1777980011 | 14.44° C | 64% | 1018.6 hPa | 0 mm | 0 m/s | - | - |
| 1777979411 | 13.89° C | 65% | 1018.5 hPa | 0 mm | 0 m/s | - | - |
| 1777978811 | 13.89° C | 64% | 1018.3 hPa | 0 mm | 0 m/s | - | - |
| 1777978209 | 14.44° C | 64% | 1018.1 hPa | 0 mm | 0 m/s | - | - |
| 1777977630 | 14.44° C | 63% | 1018.2 hPa | 0 mm | 0 m/s | - | - |
| 1777977008 | 15° C | 62% | 1018.1 hPa | 0 mm | 0 m/s | - | - |
| 1777976408 | 15.56° C | 60% | 1018.1 hPa | 0 mm | 0 m/s | - | - |
| 1777975808 | 16.11° C | 58% | 1018.1 hPa | 0 mm | 0 m/s | - | - |
* Rain latest hour (hover to see other rain measurements)
** Current wind speed in m/s (hover to see current wind gust speed)